sensor_id;sensor_type;location;lat;lon;timestamp;temperature;humidity
46758;DHT22;32509;47.750;-3.396;2024-03-08T00:01:30;10.10;99.90
46758;DHT22;32509;47.750;-3.396;2024-03-08T00:03:56;10.10;99.90
46758;DHT22;32509;47.750;-3.396;2024-03-08T00:06:22;10.00;99.90
46758;DHT22;32509;47.750;-3.396;2024-03-08T00:08:48;10.00;99.90
46758;DHT22;32509;47.750;-3.396;2024-03-08T00:11:13;10.00;99.90
46758;DHT22;32509;47.750;-3.396;2024-03-08T00:13:39;10.00;99.90
46758;DHT22;32509;47.750;-3.396;2024-03-08T00:16:05;10.00;99.90
46758;DHT22;32509;47.750;-3.396;2024-03-08T00:18:31;10.00;99.90
46758;DHT22;32509;47.750;-3.396;2024-03-08T00:20:56;10.00;99.90
46758;DHT22;32509;47.750;-3.396;2024-03-08T00:23:22;10.00;99.90
46758;DHT22;32509;47.750;-3.396;2024-03-08T00:25:48;10.00;99.90
46758;DHT22;32509;47.750;-3.396;2024-03-08T00:28:14;10.00;99.90
46758;DHT22;32509;47.750;-3.396;2024-03-08T00:30:42;10.00;99.90
46758;DHT22;32509;47.750;-3.396;2024-03-08T00:33:08;10.00;99.90
46758;DHT22;32509;47.750;-3.396;2024-03-08T00:35:34;10.00;99.90
46758;DHT22;32509;47.750;-3.396;2024-03-08T00:38:00;9.90;99.90
46758;DHT22;32509;47.750;-3.396;2024-03-08T00:40:25;10.00;99.90
46758;DHT22;32509;47.750;-3.396;2024-03-08T00:42:51;9.90;99.90
46758;DHT22;32509;47.750;-3.396;2024-03-08T00:45:18;10.00;99.90
46758;DHT22;32509;47.750;-3.396;2024-03-08T00:47:44;9.90;99.90
46758;DHT22;32509;47.750;-3.396;2024-03-08T00:50:10;9.90;99.90
46758;DHT22;32509;47.750;-3.396;2024-03-08T00:52:37;9.90;99.90
46758;DHT22;32509;47.750;-3.396;2024-03-08T00:55:03;9.90;99.90
46758;DHT22;32509;47.750;-3.396;2024-03-08T00:57:28;9.80;99.90
46758;DHT22;32509;47.750;-3.396;2024-03-08T00:59:55;9.80;99.90
46758;DHT22;32509;47.750;-3.396;2024-03-08T01:02:21;9.80;99.90
46758;DHT22;32509;47.750;-3.396;2024-03-08T01:04:48;9.80;99.90
46758;DHT22;32509;47.750;-3.396;2024-03-08T01:07:14;9.80;99.90
46758;DHT22;32509;47.750;-3.396;2024-03-08T01:09:40;9.80;99.90
46758;DHT22;32509;47.750;-3.396;2024-03-08T01:12:06;9.70;99.90
46758;DHT22;32509;47.750;-3.396;2024-03-08T01:14:33;9.70;99.90
46758;DHT22;32509;47.750;-3.396;2024-03-08T01:16:59;9.70;99.90
46758;DHT22;32509;47.750;-3.396;2024-03-08T01:19:25;9.70;99.90
46758;DHT22;32509;47.750;-3.396;2024-03-08T01:21:50;9.70;99.90
46758;DHT22;32509;47.750;-3.396;2024-03-08T01:24:16;9.70;99.90
46758;DHT22;32509;47.750;-3.396;2024-03-08T01:26:42;9.70;99.90
46758;DHT22;32509;47.750;-3.396;2024-03-08T01:29:08;9.70;99.90
46758;DHT22;32509;47.750;-3.396;2024-03-08T01:31:34;9.70;99.90
46758;DHT22;32509;47.750;-3.396;2024-03-08T01:33:59;9.70;99.90
46758;DHT22;32509;47.750;-3.396;2024-03-08T01:36:25;9.70;99.90
46758;DHT22;32509;47.750;-3.396;2024-03-08T01:38:52;9.70;99.90
46758;DHT22;32509;47.750;-3.396;2024-03-08T01:41:18;9.70;99.90
46758;DHT22;32509;47.750;-3.396;2024-03-08T01:43:44;9.70;99.90
46758;DHT22;32509;47.750;-3.396;2024-03-08T01:46:17;9.70;99.90
46758;DHT22;32509;47.750;-3.396;2024-03-08T01:48:43;9.70;99.90
46758;DHT22;32509;47.750;-3.396;2024-03-08T01:51:09;9.70;99.90
46758;DHT22;32509;47.750;-3.396;2024-03-08T01:53:37;9.70;99.90
46758;DHT22;32509;47.750;-3.396;2024-03-08T01:56:04;9.70;99.90
46758;DHT22;32509;47.750;-3.396;2024-03-08T01:58:31;9.70;99.90
46758;DHT22;32509;47.750;-3.396;2024-03-08T02:00:58;9.70;99.90
46758;DHT22;32509;47.750;-3.396;2024-03-08T02:03:25;9.70;99.90
46758;DHT22;32509;47.750;-3.396;2024-03-08T02:05:50;9.70;99.90
46758;DHT22;32509;47.750;-3.396;2024-03-08T02:08:18;9.70;99.90
46758;DHT22;32509;47.750;-3.396;2024-03-08T02:10:45;9.70;99.90
46758;DHT22;32509;47.750;-3.396;2024-03-08T02:13:11;9.70;99.90
46758;DHT22;32509;47.750;-3.396;2024-03-08T02:15:56;9.70;99.90
46758;DHT22;32509;47.750;-3.396;2024-03-08T02:18:25;9.60;99.90
46758;DHT22;32509;47.750;-3.396;2024-03-08T02:20:54;9.60;99.90
46758;DHT22;32509;47.750;-3.396;2024-03-08T02:23:20;9.70;99.90
46758;DHT22;32509;47.750;-3.396;2024-03-08T02:25:47;9.60;99.90
46758;DHT22;32509;47.750;-3.396;2024-03-08T02:28:13;9.70;99.90
46758;DHT22;32509;47.750;-3.396;2024-03-08T02:30:39;9.70;99.90
46758;DHT22;32509;47.750;-3.396;2024-03-08T02:33:06;9.60;99.90
46758;DHT22;32509;47.750;-3.396;2024-03-08T02:35:34;9.70;99.90
46758;DHT22;32509;47.750;-3.396;2024-03-08T02:38:01;9.70;99.90
46758;DHT22;32509;47.750;-3.396;2024-03-08T02:40:27;9.70;99.90
46758;DHT22;32509;47.750;-3.396;2024-03-08T02:42:52;9.60;99.90
46758;DHT22;32509;47.750;-3.396;2024-03-08T02:45:18;9.60;99.90
46758;DHT22;32509;47.750;-3.396;2024-03-08T02:47:44;9.70;99.90
46758;DHT22;32509;47.750;-3.396;2024-03-08T02:50:10;9.60;99.90
46758;DHT22;32509;47.750;-3.396;2024-03-08T02:52:37;9.70;99.90
46758;DHT22;32509;47.750;-3.396;2024-03-08T02:55:03;9.70;99.90
46758;DHT22;32509;47.750;-3.396;2024-03-08T02:57:31;9.60;99.90
46758;DHT22;32509;47.750;-3.396;2024-03-08T02:59:57;9.70;99.90
46758;DHT22;32509;47.750;-3.396;2024-03-08T03:02:25;9.60;99.90
46758;DHT22;32509;47.750;-3.396;2024-03-08T03:04:52;9.60;99.90
46758;DHT22;32509;47.750;-3.396;2024-03-08T03:07:18;9.60;99.90
46758;DHT22;32509;47.750;-3.396;2024-03-08T03:09:44;9.70;99.90
46758;DHT22;32509;47.750;-3.396;2024-03-08T03:12:10;9.60;99.90
46758;DHT22;32509;47.750;-3.396;2024-03-08T03:14:36;9.60;99.90
46758;DHT22;32509;47.750;-3.396;2024-03-08T03:17:05;9.60;99.90
46758;DHT22;32509;47.750;-3.396;2024-03-08T03:19:31;9.60;99.90
46758;DHT22;32509;47.750;-3.396;2024-03-08T03:21:56;9.60;99.90
46758;DHT22;32509;47.750;-3.396;2024-03-08T03:24:22;9.60;99.90
46758;DHT22;32509;47.750;-3.396;2024-03-08T03:26:49;9.60;99.90
46758;DHT22;32509;47.750;-3.396;2024-03-08T03:29:15;9.60;99.90
46758;DHT22;32509;47.750;-3.396;2024-03-08T03:31:42;9.60;99.90
46758;DHT22;32509;47.750;-3.396;2024-03-08T03:34:11;9.70;99.90
46758;DHT22;32509;47.750;-3.396;2024-03-08T03:36:37;9.70;99.90
46758;DHT22;32509;47.750;-3.396;2024-03-08T03:39:08;9.70;99.90
46758;DHT22;32509;47.750;-3.396;2024-03-08T03:41:41;9.70;99.90
46758;DHT22;32509;47.750;-3.396;2024-03-08T03:44:07;9.70;99.90
46758;DHT22;32509;47.750;-3.396;2024-03-08T03:46:34;9.70;99.90
46758;DHT22;32509;47.750;-3.396;2024-03-08T03:48:59;9.70;99.90
46758;DHT22;32509;47.750;-3.396;2024-03-08T03:51:25;9.70;99.90
46758;DHT22;32509;47.750;-3.396;2024-03-08T03:53:51;9.70;99.90
46758;DHT22;32509;47.750;-3.396;2024-03-08T03:56:18;9.60;99.90
46758;DHT22;32509;47.750;-3.396;2024-03-08T03:58:44;9.60;99.90
46758;DHT22;32509;47.750;-3.396;2024-03-08T04:01:10;9.70;99.90
46758;DHT22;32509;47.750;-3.396;2024-03-08T04:03:36;9.60;99.90
46758;DHT22;32509;47.750;-3.396;2024-03-08T04:06:06;9.60;99.90
46758;DHT22;32509;47.750;-3.396;2024-03-08T04:08:31;9.60;99.90
46758;DHT22;32509;47.750;-3.396;2024-03-08T04:11:00;9.50;99.90
46758;DHT22;32509;47.750;-3.396;2024-03-08T04:13:26;9.60;99.90
46758;DHT22;32509;47.750;-3.396;2024-03-08T04:15:52;9.50;99.90
46758;DHT22;32509;47.750;-3.396;2024-03-08T04:18:17;9.50;99.90
46758;DHT22;32509;47.750;-3.396;2024-03-08T04:20:44;9.60;99.90
46758;DHT22;32509;47.750;-3.396;2024-03-08T04:23:11;9.60;99.90
46758;DHT22;32509;47.750;-3.396;2024-03-08T04:25:36;9.60;99.90
46758;DHT22;32509;47.750;-3.396;2024-03-08T04:28:03;9.60;99.90
46758;DHT22;32509;47.750;-3.396;2024-03-08T04:30:29;9.60;99.90
46758;DHT22;32509;47.750;-3.396;2024-03-08T04:32:55;9.60;99.90
46758;DHT22;32509;47.750;-3.396;2024-03-08T04:35:21;9.50;99.90
46758;DHT22;32509;47.750;-3.396;2024-03-08T04:37:47;9.50;99.90
46758;DHT22;32509;47.750;-3.396;2024-03-08T04:40:12;9.60;99.90
46758;DHT22;32509;47.750;-3.396;2024-03-08T04:42:39;9.50;99.90
46758;DHT22;32509;47.750;-3.396;2024-03-08T04:45:06;9.60;99.90
46758;DHT22;32509;47.750;-3.396;2024-03-08T04:47:33;9.50;99.90
46758;DHT22;32509;47.750;-3.396;2024-03-08T04:49:59;9.50;99.90
46758;DHT22;32509;47.750;-3.396;2024-03-08T04:52:25;9.50;99.90
46758;DHT22;32509;47.750;-3.396;2024-03-08T04:54:51;9.40;99.90
46758;DHT22;32509;47.750;-3.396;2024-03-08T04:57:17;9.40;99.90
46758;DHT22;32509;47.750;-3.396;2024-03-08T04:59:45;9.40;99.90
46758;DHT22;32509;47.750;-3.396;2024-03-08T05:02:11;9.40;99.90
46758;DHT22;32509;47.750;-3.396;2024-03-08T05:04:37;9.40;99.90
46758;DHT22;32509;47.750;-3.396;2024-03-08T05:07:02;9.40;99.90
46758;DHT22;32509;47.750;-3.396;2024-03-08T05:09:29;9.40;99.90
46758;DHT22;32509;47.750;-3.396;2024-03-08T05:11:57;9.40;99.90
46758;DHT22;32509;47.750;-3.396;2024-03-08T05:14:25;9.30;99.90
46758;DHT22;32509;47.750;-3.396;2024-03-08T05:16:50;9.30;99.90
46758;DHT22;32509;47.750;-3.396;2024-03-08T05:19:20;9.30;99.90
46758;DHT22;32509;47.750;-3.396;2024-03-08T05:21:47;9.30;99.90
46758;DHT22;32509;47.750;-3.396;2024-03-08T05:24:13;9.30;99.90
46758;DHT22;32509;47.750;-3.396;2024-03-08T05:26:41;9.30;99.90
46758;DHT22;32509;47.750;-3.396;2024-03-08T05:29:07;9.30;99.90
46758;DHT22;32509;47.750;-3.396;2024-03-08T05:31:47;9.30;99.90
46758;DHT22;32509;47.750;-3.396;2024-03-08T05:34:14;9.30;99.90
46758;DHT22;32509;47.750;-3.396;2024-03-08T05:36:43;9.30;99.90
46758;DHT22;32509;47.750;-3.396;2024-03-08T05:39:11;9.30;99.90
46758;DHT22;32509;47.750;-3.396;2024-03-08T05:41:40;9.20;99.90
46758;DHT22;32509;47.750;-3.396;2024-03-08T05:44:06;9.20;99.90
46758;DHT22;32509;47.750;-3.396;2024-03-08T05:46:33;9.20;99.90
46758;DHT22;32509;47.750;-3.396;2024-03-08T05:48:59;9.30;99.90
46758;DHT22;32509;47.750;-3.396;2024-03-08T05:51:25;9.30;99.90
46758;DHT22;32509;47.750;-3.396;2024-03-08T05:53:54;9.30;99.90
46758;DHT22;32509;47.750;-3.396;2024-03-08T05:56:21;9.30;99.90
46758;DHT22;32509;47.750;-3.396;2024-03-08T05:58:48;9.30;99.90
46758;DHT22;32509;47.750;-3.396;2024-03-08T06:01:15;9.30;99.90
46758;DHT22;32509;47.750;-3.396;2024-03-08T06:03:41;9.30;99.90
46758;DHT22;32509;47.750;-3.396;2024-03-08T06:06:14;9.30;99.90
46758;DHT22;32509;47.750;-3.396;2024-03-08T06:08:40;9.30;99.90
46758;DHT22;32509;47.750;-3.396;2024-03-08T06:11:08;9.30;99.90
46758;DHT22;32509;47.750;-3.396;2024-03-08T06:13:34;9.30;99.90
46758;DHT22;32509;47.750;-3.396;2024-03-08T06:16:01;9.40;99.90
46758;DHT22;32509;47.750;-3.396;2024-03-08T06:18:32;9.40;99.90
46758;DHT22;32509;47.750;-3.396;2024-03-08T06:20:58;9.40;99.90
46758;DHT22;32509;47.750;-3.396;2024-03-08T06:23:24;9.40;99.90
46758;DHT22;32509;47.750;-3.396;2024-03-08T06:25:49;9.40;99.90
46758;DHT22;32509;47.750;-3.396;2024-03-08T06:28:15;9.50;99.90
46758;DHT22;32509;47.750;-3.396;2024-03-08T06:30:42;9.50;99.90
46758;DHT22;32509;47.750;-3.396;2024-03-08T06:33:08;9.50;99.90
46758;DHT22;32509;47.750;-3.396;2024-03-08T06:35:34;9.40;99.90
46758;DHT22;32509;47.750;-3.396;2024-03-08T06:38:04;9.50;99.90
46758;DHT22;32509;47.750;-3.396;2024-03-08T06:40:29;9.50;99.90
46758;DHT22;32509;47.750;-3.396;2024-03-08T06:42:55;9.50;99.90
46758;DHT22;32509;47.750;-3.396;2024-03-08T06:45:21;9.50;99.90
46758;DHT22;32509;47.750;-3.396;2024-03-08T06:47:49;9.50;99.90
46758;DHT22;32509;47.750;-3.396;2024-03-08T06:50:15;9.50;99.90
46758;DHT22;32509;47.750;-3.396;2024-03-08T06:52:41;9.50;99.90
46758;DHT22;32509;47.750;-3.396;2024-03-08T06:55:12;9.50;99.90
46758;DHT22;32509;47.750;-3.396;2024-03-08T06:57:41;9.40;99.90
46758;DHT22;32509;47.750;-3.396;2024-03-08T07:00:08;9.50;99.90
46758;DHT22;32509;47.750;-3.396;2024-03-08T07:02:40;9.50;99.90
46758;DHT22;32509;47.750;-3.396;2024-03-08T07:05:07;9.40;99.90
46758;DHT22;32509;47.750;-3.396;2024-03-08T07:07:36;9.40;99.90
46758;DHT22;32509;47.750;-3.396;2024-03-08T07:10:02;9.40;99.90
46758;DHT22;32509;47.750;-3.396;2024-03-08T07:12:28;9.40;99.90
46758;DHT22;32509;47.750;-3.396;2024-03-08T07:14:54;9.50;99.90
46758;DHT22;32509;47.750;-3.396;2024-03-08T07:17:20;9.60;99.90
46758;DHT22;32509;47.750;-3.396;2024-03-08T07:19:46;9.60;99.90
46758;DHT22;32509;47.750;-3.396;2024-03-08T07:22:11;9.60;99.90
46758;DHT22;32509;47.750;-3.396;2024-03-08T07:24:37;9.60;99.90
46758;DHT22;32509;47.750;-3.396;2024-03-08T07:27:23;9.70;99.90
46758;DHT22;32509;47.750;-3.396;2024-03-08T07:29:49;9.70;99.90
46758;DHT22;32509;47.750;-3.396;2024-03-08T07:32:15;9.70;99.90
46758;DHT22;32509;47.750;-3.396;2024-03-08T07:34:49;9.60;99.90
46758;DHT22;32509;47.750;-3.396;2024-03-08T07:37:18;9.70;99.90
46758;DHT22;32509;47.750;-3.396;2024-03-08T07:39:45;9.70;99.90
46758;DHT22;32509;47.750;-3.396;2024-03-08T07:42:11;9.60;99.90
46758;DHT22;32509;47.750;-3.396;2024-03-08T07:44:38;9.60;99.90
46758;DHT22;32509;47.750;-3.396;2024-03-08T07:47:04;9.60;99.90
46758;DHT22;32509;47.750;-3.396;2024-03-08T07:49:30;9.60;99.90
46758;DHT22;32509;47.750;-3.396;2024-03-08T07:51:56;9.60;99.90
46758;DHT22;32509;47.750;-3.396;2024-03-08T07:54:23;9.60;99.90
46758;DHT22;32509;47.750;-3.396;2024-03-08T07:56:49;9.60;99.90
46758;DHT22;32509;47.750;-3.396;2024-03-08T07:59:16;9.60;99.90
46758;DHT22;32509;47.750;-3.396;2024-03-08T08:01:42;9.70;99.90
46758;DHT22;32509;47.750;-3.396;2024-03-08T08:04:09;9.70;99.90
46758;DHT22;32509;47.750;-3.396;2024-03-08T08:06:38;9.60;99.90
46758;DHT22;32509;47.750;-3.396;2024-03-08T08:09:07;9.60;99.90
46758;DHT22;32509;47.750;-3.396;2024-03-08T08:11:40;9.60;99.90
46758;DHT22;32509;47.750;-3.396;2024-03-08T08:14:06;9.60;99.90
46758;DHT22;32509;47.750;-3.396;2024-03-08T08:16:35;9.50;99.90
46758;DHT22;32509;47.750;-3.396;2024-03-08T08:19:06;9.60;99.90
46758;DHT22;32509;47.750;-3.396;2024-03-08T08:21:36;9.60;99.90
46758;DHT22;32509;47.750;-3.396;2024-03-08T08:24:03;9.50;99.90
46758;DHT22;32509;47.750;-3.396;2024-03-08T08:26:29;9.50;99.90
46758;DHT22;32509;47.750;-3.396;2024-03-08T08:28:55;9.50;99.90
46758;DHT22;32509;47.750;-3.396;2024-03-08T08:31:21;9.50;99.90
46758;DHT22;32509;47.750;-3.396;2024-03-08T08:33:46;9.60;99.90
46758;DHT22;32509;47.750;-3.396;2024-03-08T08:36:14;9.60;99.90
46758;DHT22;32509;47.750;-3.396;2024-03-08T08:38:40;9.60;99.90
46758;DHT22;32509;47.750;-3.396;2024-03-08T08:41:09;9.70;99.90
46758;DHT22;32509;47.750;-3.396;2024-03-08T08:43:36;9.70;99.90
46758;DHT22;32509;47.750;-3.396;2024-03-08T08:46:02;9.70;99.90
46758;DHT22;32509;47.750;-3.396;2024-03-08T08:48:28;9.70;99.90
46758;DHT22;32509;47.750;-3.396;2024-03-08T08:50:56;9.70;99.90
46758;DHT22;32509;47.750;-3.396;2024-03-08T08:53:22;9.80;99.90
46758;DHT22;32509;47.750;-3.396;2024-03-08T08:55:48;9.70;99.90
46758;DHT22;32509;47.750;-3.396;2024-03-08T08:58:13;9.70;99.90
46758;DHT22;32509;47.750;-3.396;2024-03-08T09:00:39;9.70;99.90
46758;DHT22;32509;47.750;-3.396;2024-03-08T09:03:05;9.70;99.90
46758;DHT22;32509;47.750;-3.396;2024-03-08T09:05:32;9.70;99.90
46758;DHT22;32509;47.750;-3.396;2024-03-08T09:07:59;9.70;99.90
46758;DHT22;32509;47.750;-3.396;2024-03-08T09:10:26;9.80;99.90
46758;DHT22;32509;47.750;-3.396;2024-03-08T09:12:53;9.80;99.90
46758;DHT22;32509;47.750;-3.396;2024-03-08T09:15:19;9.80;99.90
46758;DHT22;32509;47.750;-3.396;2024-03-08T09:17:46;9.80;99.90
46758;DHT22;32509;47.750;-3.396;2024-03-08T09:20:12;9.90;99.90
46758;DHT22;32509;47.750;-3.396;2024-03-08T09:22:44;10.00;99.90
46758;DHT22;32509;47.750;-3.396;2024-03-08T09:25:10;10.00;99.90
46758;DHT22;32509;47.750;-3.396;2024-03-08T09:27:35;10.10;99.90
46758;DHT22;32509;47.750;-3.396;2024-03-08T09:30:02;10.10;99.90
46758;DHT22;32509;47.750;-3.396;2024-03-08T09:32:27;10.10;99.90
46758;DHT22;32509;47.750;-3.396;2024-03-08T09:34:53;10.10;99.90
46758;DHT22;32509;47.750;-3.396;2024-03-08T09:37:19;10.20;99.90
46758;DHT22;32509;47.750;-3.396;2024-03-08T09:39:45;10.20;99.90
46758;DHT22;32509;47.750;-3.396;2024-03-08T09:42:11;10.20;99.90
46758;DHT22;32509;47.750;-3.396;2024-03-08T09:44:46;10.30;99.90
46758;DHT22;32509;47.750;-3.396;2024-03-08T09:47:15;10.30;99.90
46758;DHT22;32509;47.750;-3.396;2024-03-08T09:49:42;10.30;99.90
46758;DHT22;32509;47.750;-3.396;2024-03-08T09:52:09;10.30;99.90
46758;DHT22;32509;47.750;-3.396;2024-03-08T09:54:36;10.20;99.90
46758;DHT22;32509;47.750;-3.396;2024-03-08T09:57:04;10.30;99.90
46758;DHT22;32509;47.750;-3.396;2024-03-08T09:59:30;10.20;99.90
46758;DHT22;32509;47.750;-3.396;2024-03-08T10:02:15;10.30;99.90
46758;DHT22;32509;47.750;-3.396;2024-03-08T10:04:41;10.20;99.90
46758;DHT22;32509;47.750;-3.396;2024-03-08T10:07:12;10.20;99.90
46758;DHT22;32509;47.750;-3.396;2024-03-08T10:09:38;10.20;99.90
46758;DHT22;32509;47.750;-3.396;2024-03-08T10:12:05;10.20;99.90
46758;DHT22;32509;47.750;-3.396;2024-03-08T10:14:31;10.20;99.90
46758;DHT22;32509;47.750;-3.396;2024-03-08T10:16:57;10.20;99.90
46758;DHT22;32509;47.750;-3.396;2024-03-08T10:19:27;10.20;99.90
46758;DHT22;32509;47.750;-3.396;2024-03-08T10:21:55;10.20;99.90
46758;DHT22;32509;47.750;-3.396;2024-03-08T10:24:25;10.20;99.90
46758;DHT22;32509;47.750;-3.396;2024-03-08T10:26:58;10.30;99.90
46758;DHT22;32509;47.750;-3.396;2024-03-08T10:29:25;10.30;99.90
46758;DHT22;32509;47.750;-3.396;2024-03-08T10:31:51;10.20;99.90
46758;DHT22;32509;47.750;-3.396;2024-03-08T10:34:17;10.30;99.90
46758;DHT22;32509;47.750;-3.396;2024-03-08T10:36:42;10.40;99.90
46758;DHT22;32509;47.750;-3.396;2024-03-08T10:39:24;10.40;99.90
46758;DHT22;32509;47.750;-3.396;2024-03-08T10:41:58;10.50;99.90
46758;DHT22;32509;47.750;-3.396;2024-03-08T10:47:15;10.60;99.90
46758;DHT22;32509;47.750;-3.396;2024-03-08T10:50:11;10.70;99.90
46758;DHT22;32509;47.750;-3.396;2024-03-08T10:52:43;10.80;99.90
46758;DHT22;32509;47.750;-3.396;2024-03-08T10:55:10;10.80;99.90
46758;DHT22;32509;47.750;-3.396;2024-03-08T10:57:39;10.80;99.90
46758;DHT22;32509;47.750;-3.396;2024-03-08T11:00:07;10.90;99.90
46758;DHT22;32509;47.750;-3.396;2024-03-08T11:02:36;11.00;99.90
46758;DHT22;32509;47.750;-3.396;2024-03-08T11:05:04;11.00;99.90
46758;DHT22;32509;47.750;-3.396;2024-03-08T11:07:34;11.10;99.90
46758;DHT22;32509;47.750;-3.396;2024-03-08T11:10:03;11.10;99.90
46758;DHT22;32509;47.750;-3.396;2024-03-08T11:12:39;11.20;99.90
46758;DHT22;32509;47.750;-3.396;2024-03-08T11:15:12;11.30;99.90
46758;DHT22;32509;47.750;-3.396;2024-03-08T11:20:12;11.40;99.90
46758;DHT22;32509;47.750;-3.396;2024-03-08T13:09:24;11.10;99.90
46758;DHT22;32509;47.750;-3.396;2024-03-08T13:11:53;11.00;99.90
46758;DHT22;32509;47.750;-3.396;2024-03-08T13:14:21;11.10;99.90
46758;DHT22;32509;47.750;-3.396;2024-03-08T13:16:47;11.30;99.90
46758;DHT22;32509;47.750;-3.396;2024-03-08T13:19:13;11.30;99.90
46758;DHT22;32509;47.750;-3.396;2024-03-08T13:21:39;11.40;99.90
46758;DHT22;32509;47.750;-3.396;2024-03-08T13:24:05;11.50;99.90
46758;DHT22;32509;47.750;-3.396;2024-03-08T13:26:31;11.60;99.90
46758;DHT22;32509;47.750;-3.396;2024-03-08T13:28:59;11.70;99.90
46758;DHT22;32509;47.750;-3.396;2024-03-08T13:31:25;11.70;99.90
46758;DHT22;32509;47.750;-3.396;2024-03-08T13:33:50;11.80;99.90
46758;DHT22;32509;47.750;-3.396;2024-03-08T13:36:23;11.80;99.90
46758;DHT22;32509;47.750;-3.396;2024-03-08T13:38:54;11.90;99.90
46758;DHT22;32509;47.750;-3.396;2024-03-08T13:41:20;12.00;99.90
46758;DHT22;32509;47.750;-3.396;2024-03-08T13:43:50;12.00;99.90
46758;DHT22;32509;47.750;-3.396;2024-03-08T13:46:16;12.00;99.90
46758;DHT22;32509;47.750;-3.396;2024-03-08T13:48:42;12.00;99.90
46758;DHT22;32509;47.750;-3.396;2024-03-08T13:51:08;12.00;99.90
46758;DHT22;32509;47.750;-3.396;2024-03-08T13:53:40;12.00;99.90
46758;DHT22;32509;47.750;-3.396;2024-03-08T13:56:06;12.00;99.90
46758;DHT22;32509;47.750;-3.396;2024-03-08T13:58:33;12.00;99.90
46758;DHT22;32509;47.750;-3.396;2024-03-08T14:01:00;12.10;99.90
46758;DHT22;32509;47.750;-3.396;2024-03-08T14:03:28;12.10;99.90
46758;DHT22;32509;47.750;-3.396;2024-03-08T14:05:54;12.10;99.90
46758;DHT22;32509;47.750;-3.396;2024-03-08T14:08:23;12.10;99.90
46758;DHT22;32509;47.750;-3.396;2024-03-08T14:10:50;12.00;99.90
46758;DHT22;32509;47.750;-3.396;2024-03-08T14:13:17;12.10;99.90
46758;DHT22;32509;47.750;-3.396;2024-03-08T14:15:44;12.00;99.90
46758;DHT22;32509;47.750;-3.396;2024-03-08T14:18:11;12.00;99.90
46758;DHT22;32509;47.750;-3.396;2024-03-08T14:20:39;12.10;99.90
46758;DHT22;32509;47.750;-3.396;2024-03-08T14:23:04;12.00;99.90
46758;DHT22;32509;47.750;-3.396;2024-03-08T14:25:33;12.00;99.90
46758;DHT22;32509;47.750;-3.396;2024-03-08T14:27:59;12.00;99.90
46758;DHT22;32509;47.750;-3.396;2024-03-08T14:30:29;12.00;99.90
46758;DHT22;32509;47.750;-3.396;2024-03-08T14:33:01;12.10;99.90
46758;DHT22;32509;47.750;-3.396;2024-03-08T14:35:27;12.00;99.90
46758;DHT22;32509;47.750;-3.396;2024-03-08T14:37:56;12.00;99.90
46758;DHT22;32509;47.750;-3.396;2024-03-08T14:40:23;12.00;99.90
46758;DHT22;32509;47.750;-3.396;2024-03-08T14:42:49;12.00;99.90
46758;DHT22;32509;47.750;-3.396;2024-03-08T14:45:16;12.00;99.90
46758;DHT22;32509;47.750;-3.396;2024-03-08T14:47:47;12.00;99.90
46758;DHT22;32509;47.750;-3.396;2024-03-08T14:50:20;11.90;99.90
46758;DHT22;32509;47.750;-3.396;2024-03-08T14:52:46;11.90;99.90
46758;DHT22;32509;47.750;-3.396;2024-03-08T14:55:19;11.90;99.90
46758;DHT22;32509;47.750;-3.396;2024-03-08T14:57:49;11.90;99.90
46758;DHT22;32509;47.750;-3.396;2024-03-08T15:00:18;11.90;99.90
46758;DHT22;32509;47.750;-3.396;2024-03-08T15:02:55;11.90;99.90
46758;DHT22;32509;47.750;-3.396;2024-03-08T15:05:22;11.90;99.90
46758;DHT22;32509;47.750;-3.396;2024-03-08T15:07:54;11.90;99.90
46758;DHT22;32509;47.750;-3.396;2024-03-08T15:10:20;11.90;99.90
46758;DHT22;32509;47.750;-3.396;2024-03-08T15:12:50;11.90;99.90
46758;DHT22;32509;47.750;-3.396;2024-03-08T15:15:18;11.90;99.90
46758;DHT22;32509;47.750;-3.396;2024-03-08T15:17:45;11.90;99.90
46758;DHT22;32509;47.750;-3.396;2024-03-08T15:20:13;11.90;99.90
46758;DHT22;32509;47.750;-3.396;2024-03-08T15:22:43;12.00;99.90
46758;DHT22;32509;47.750;-3.396;2024-03-08T15:25:12;11.90;99.90
46758;DHT22;32509;47.750;-3.396;2024-03-08T15:27:43;11.90;99.90
46758;DHT22;32509;47.750;-3.396;2024-03-08T15:30:08;11.90;99.90
46758;DHT22;32509;47.750;-3.396;2024-03-08T15:32:44;11.90;99.90
46758;DHT22;32509;47.750;-3.396;2024-03-08T15:35:09;11.80;99.90
46758;DHT22;32509;47.750;-3.396;2024-03-08T15:37:42;11.80;99.90
46758;DHT22;32509;47.750;-3.396;2024-03-08T15:40:10;11.80;99.90
46758;DHT22;32509;47.750;-3.396;2024-03-08T15:42:43;11.80;99.90
46758;DHT22;32509;47.750;-3.396;2024-03-08T15:45:09;11.80;99.90
46758;DHT22;32509;47.750;-3.396;2024-03-08T15:47:37;11.80;99.90
46758;DHT22;32509;47.750;-3.396;2024-03-08T15:50:03;11.80;99.90
46758;DHT22;32509;47.750;-3.396;2024-03-08T15:52:29;11.80;99.90
46758;DHT22;32509;47.750;-3.396;2024-03-08T15:54:55;11.80;99.90
46758;DHT22;32509;47.750;-3.396;2024-03-08T15:57:20;11.80;99.90
46758;DHT22;32509;47.750;-3.396;2024-03-08T15:59:46;11.80;99.90
46758;DHT22;32509;47.750;-3.396;2024-03-08T16:02:12;11.80;99.90
46758;DHT22;32509;47.750;-3.396;2024-03-08T16:04:38;11.80;99.90
46758;DHT22;32509;47.750;-3.396;2024-03-08T16:07:04;11.80;99.90
46758;DHT22;32509;47.750;-3.396;2024-03-08T16:09:31;11.80;99.90
46758;DHT22;32509;47.750;-3.396;2024-03-08T16:11:57;11.80;99.90
46758;DHT22;32509;47.750;-3.396;2024-03-08T16:14:23;11.70;99.90
46758;DHT22;32509;47.750;-3.396;2024-03-08T16:16:49;11.70;99.90
46758;DHT22;32509;47.750;-3.396;2024-03-08T16:19:16;11.70;99.90
46758;DHT22;32509;47.750;-3.396;2024-03-08T16:21:41;11.70;99.90
46758;DHT22;32509;47.750;-3.396;2024-03-08T16:24:07;11.70;99.90
46758;DHT22;32509;47.750;-3.396;2024-03-08T16:26:34;11.80;99.90
46758;DHT22;32509;47.750;-3.396;2024-03-08T16:29:02;11.80;99.90
46758;DHT22;32509;47.750;-3.396;2024-03-08T16:31:29;11.80;99.90
46758;DHT22;32509;47.750;-3.396;2024-03-08T16:33:55;11.70;99.90
46758;DHT22;32509;47.750;-3.396;2024-03-08T16:36:21;11.70;99.90
46758;DHT22;32509;47.750;-3.396;2024-03-08T16:38:46;11.70;99.90
46758;DHT22;32509;47.750;-3.396;2024-03-08T16:41:14;11.70;99.90
46758;DHT22;32509;47.750;-3.396;2024-03-08T16:43:40;11.70;99.90
46758;DHT22;32509;47.750;-3.396;2024-03-08T16:46:06;11.70;99.90
46758;DHT22;32509;47.750;-3.396;2024-03-08T16:48:32;11.60;99.90
46758;DHT22;32509;47.750;-3.396;2024-03-08T16:50:59;11.60;99.90
46758;DHT22;32509;47.750;-3.396;2024-03-08T16:53:25;11.60;99.90
46758;DHT22;32509;47.750;-3.396;2024-03-08T16:55:51;11.60;99.90
46758;DHT22;32509;47.750;-3.396;2024-03-08T16:58:18;11.60;99.90
46758;DHT22;32509;47.750;-3.396;2024-03-08T17:00:44;11.60;99.90
46758;DHT22;32509;47.750;-3.396;2024-03-08T17:03:10;11.60;99.90
46758;DHT22;32509;47.750;-3.396;2024-03-08T17:05:39;11.60;99.90
46758;DHT22;32509;47.750;-3.396;2024-03-08T17:08:10;11.60;99.90
46758;DHT22;32509;47.750;-3.396;2024-03-08T17:10:36;11.50;99.90
46758;DHT22;32509;47.750;-3.396;2024-03-08T17:13:03;11.50;99.90
46758;DHT22;32509;47.750;-3.396;2024-03-08T17:15:31;11.50;99.90
46758;DHT22;32509;47.750;-3.396;2024-03-08T17:18:01;11.50;99.90